Time;durP1;ratioP1;P1;durP2;ratioP2;P2;SDS_P1;SDS_P2;PMS_P1;PMS_P2;Temp;Humidity;BMP_temperature;BMP_pressure;BME280_temperature;BME280_humidity;BME280_pressure;Samples;Min_cycle;Max_cycle;Signal;HPM_P1;HPM_P2
2021/04/18 01:25:26;;;;;;;2.55;0.98;;;17.90;36.30;;;;;;6080917;23;21091;-79
2021/04/18 04:15:30;;;;;;;1.55;0.90;;;17.90;36.50;;;;;;6099426;23;21102;31
2021/04/18 04:17:58;;;;;;;2.63;1.08;;;17.80;36.50;;;;;;4904762;29;20195;-79
2021/04/18 04:20:30;;;;;;;3.40;1.00;;;17.80;36.50;;;;;;4905549;29;20179;-80
2021/04/18 04:23:09;;;;;;;1.50;1.10;;;17.80;36.60;;;;;;4882831;29;20280;-79
2021/04/18 04:25:57;;;;;;;1.17;0.98;;;17.80;36.50;;;;;;4866889;29;20287;-79
2021/04/18 04:28:33;;;;;;;1.20;1.10;;;17.80;36.60;;;;;;4882865;29;20224;-79
2021/04/18 04:31:10;;;;;;;1.20;1.00;;;17.90;36.60;;;;;;4882121;29;20161;-80
2021/04/18 04:34:04;;;;;;;2.88;1.30;;;17.80;36.50;;;;;;4881800;29;20243;-80
2021/04/18 04:36:45;;;;;;;2.17;1.00;;;17.90;36.40;;;;;;4882034;29;20165;-79
2021/04/18 04:39:24;;;;;;;1.67;1.02;;;17.90;36.50;;;;;;4881352;29;20251;-80
2021/04/18 04:41:51;;;;;;;1.27;1.00;;;17.80;36.50;;;;;;4881229;29;20216;-79
2021/04/18 04:44:19;;;;;;;2.70;1.00;;;17.80;36.50;;;;;;4881564;29;20233;-79
2021/04/18 04:46:56;;;;;;;1.33;0.95;;;17.90;36.60;;;;;;4865401;29;20197;-79
2021/04/18 04:49:33;;;;;;;2.55;1.30;;;17.80;36.50;;;;;;4881819;29;20157;-79
2021/04/18 04:52:09;;;;;;;2.95;0.98;;;17.80;36.50;;;;;;4880582;29;20209;-79
2021/04/18 04:54:41;;;;;;;1.67;1.13;;;17.90;36.60;;;;;;4880378;29;20192;-79
2021/04/18 04:57:07;;;;;;;1.17;1.08;;;17.90;37.20;;;;;;4880940;29;20184;-79
2021/04/18 04:59:35;;;;;;;1.92;1.05;;;17.90;36.50;;;;;;4887921;29;20667;-80
2021/04/18 05:02:02;;;;;;;1.55;1.10;;;17.90;36.50;;;;;;4872381;29;20234;-79
2021/04/18 05:04:29;;;;;;;2.47;1.00;;;17.90;36.40;;;;;;4902841;29;20239;-80
2021/04/18 05:07:02;;;;;;;1.85;1.05;;;17.90;36.40;;;;;;4902834;29;20168;-79
2021/04/18 05:09:29;;;;;;;1.88;1.00;;;17.90;36.40;;;;;;4902816;29;20230;-79
2021/04/18 05:12:00;;;;;;;2.35;1.08;;;18.00;36.40;;;;;;4887025;29;20166;-79
2021/04/18 05:14:43;;;;;;;1.50;1.00;;;18.00;36.40;;;;;;4918394;29;20166;-79
2021/04/18 05:17:14;;;;;;;2.25;1.10;;;18.00;36.30;;;;;;4902834;29;20258;-79
2021/04/18 05:19:44;;;;;;;2.30;1.10;;;18.00;36.20;;;;;;4918444;29;20164;-80
2021/04/18 05:22:11;;;;;;;2.28;0.98;;;18.10;36.80;;;;;;4898338;29;20267;-79
2021/04/18 05:24:45;;;;;;;1.75;1.20;;;18.10;36.20;;;;;;4891852;29;20211;-79
2021/04/18 05:27:12;;;;;;;2.08;1.10;;;18.00;36.20;;;;;;4881655;29;20203;-79
2021/04/18 05:29:38;;;;;;;1.95;1.00;;;18.10;36.20;;;;;;4882093;29;20206;-79
2021/04/18 05:32:07;;;;;;;1.55;1.17;;;18.10;36.20;;;;;;4887541;29;20180;-79
2021/04/18 05:34:42;;;;;;;1.42;0.98;;;18.10;36.10;;;;;;4895769;29;20174;-79
2021/04/18 05:37:08;;;;;;;1.55;1.10;;;18.10;36.10;;;;;;4874534;29;20184;-80
2021/04/18 05:39:34;;;;;;;1.40;1.10;;;18.00;36.10;;;;;;4877204;29;20169;-79
2021/04/18 05:42:01;;;;;;;2.35;1.02;;;18.10;36.20;;;;;;4860560;29;20204;-79
2021/04/18 05:44:30;;;;;;;2.33;1.10;;;18.10;36.20;;;;;;4861314;29;20226;-79
2021/04/18 05:47:05;;;;;;;1.48;1.13;;;18.10;36.10;;;;;;4881230;29;20164;-79
2021/04/18 05:49:36;;;;;;;1.77;1.17;;;18.10;36.00;;;;;;4876894;29;20184;-79
2021/04/18 05:52:11;;;;;;;1.65;0.98;;;18.10;36.00;;;;;;4895287;29;20223;-79
2021/04/18 05:54:37;;;;;;;1.88;1.10;;;18.10;36.00;;;;;;4896497;29;20727;-79
2021/04/18 05:57:03;;;;;;;1.55;0.90;;;18.10;36.10;;;;;;4898318;29;20582;-79
2021/04/18 05:59:31;;;;;;;2.10;1.25;;;18.10;36.00;;;;;;4885091;29;20172;-80
2021/04/18 06:01:56;;;;;;;1.58;0.90;;;18.10;36.00;;;;;;4878251;29;20264;-80
2021/04/18 06:04:23;;;;;;;1.80;0.90;;;18.10;36.00;;;;;;4877956;29;20164;-80
2021/04/18 06:06:49;;;;;;;1.77;1.08;;;18.20;36.00;;;;;;4875581;29;20592;-80
2021/04/18 06:09:15;;;;;;;1.25;1.10;;;18.20;36.00;;;;;;4875480;29;20259;-80
2021/04/18 06:11:49;;;;;;;1.98;1.20;;;18.20;36.20;;;;;;4877803;29;20530;-79
2021/04/18 06:14:16;;;;;;;1.95;1.00;;;18.10;36.20;;;;;;4934487;29;20619;-79
2021/04/18 06:16:43;;;;;;;1.23;0.95;;;18.10;36.10;;;;;;4871945;29;20689;-79
2021/04/18 06:19:09;;;;;;;1.70;0.80;;;18.20;36.00;;;;;;4872333;29;20167;-79
2021/04/18 06:21:35;;;;;;;2.13;1.00;;;18.20;35.90;;;;;;4888370;29;20231;-79
2021/04/18 06:24:06;;;;;;;3.33;1.13;;;18.30;35.90;;;;;;4872420;29;20156;-79
2021/04/18 06:26:39;;;;;;;2.03;1.30;;;18.10;35.90;;;;;;4874062;29;20695;-80
2021/04/18 06:29:07;;;;;;;1.75;1.10;;;18.20;36.00;;;;;;4873777;29;20176;-79
2021/04/18 06:31:33;;;;;;;2.45;1.20;;;18.20;36.00;;;;;;4889899;29;20167;-79
2021/04/18 06:34:07;;;;;;;1.88;1.20;;;18.20;36.00;;;;;;4873879;29;20174;-79
2021/04/18 06:36:33;;;;;;;2.28;1.30;;;18.20;36.00;;;;;;4874084;29;20171;-79
2021/04/18 06:38:59;;;;;;;1.05;0.95;;;18.20;36.00;;;;;;4905842;29;20182;-79
2021/04/18 06:41:25;;;;;;;1.45;1.13;;;18.20;36.70;;;;;;4887072;29;20171;-79
2021/04/18 06:43:54;;;;;;;1.98;1.05;;;18.10;36.00;;;;;;4873019;29;20210;-79
2021/04/18 06:46:22;;;;;;;1.10;1.00;;;18.20;35.90;;;;;;4890043;29;20227;-79
2021/04/18 06:48:50;;;;;;;1.60;1.10;;;18.20;36.10;;;;;;4905122;29;20159;-78
2021/04/18 06:51:19;;;;;;;3.80;1.13;;;18.20;36.00;;;;;;4905495;29;20257;-79
2021/04/18 06:53:47;;;;;;;1.85;1.10;;;18.20;36.00;;;;;;4905717;29;20178;-80
2021/04/18 06:56:20;;;;;;;1.00;0.90;;;18.20;36.00;;;;;;4889897;29;20171;-79
2021/04/18 06:58:47;;;;;;;1.20;1.00;;;18.20;36.00;;;;;;4906587;29;20163;-79
2021/04/18 07:01:13;;;;;;;3.70;1.25;;;18.20;36.00;;;;;;4906278;29;20164;-79
2021/04/18 07:04:06;;;;;;;1.20;1.08;;;18.20;35.90;;;;;;4921136;29;20269;-79
2021/04/18 07:06:40;;;;;;;1.60;1.13;;;18.30;35.90;;;;;;4892952;29;20208;-79
2021/04/18 07:09:08;;;;;;;1.50;0.85;;;18.30;35.90;;;;;;4890238;29;20187;-79
2021/04/18 07:11:57;;;;;;;1.48;1.20;;;18.30;35.90;;;;;;4905534;29;20140;-79
2021/04/18 07:14:33;;;;;;;1.30;0.95;;;18.30;35.80;;;;;;4906975;29;20171;-79
2021/04/18 07:17:06;;;;;;;2.15;1.00;;;18.30;35.90;;;;;;4920567;29;20227;-78
2021/04/18 07:19:40;;;;;;;1.30;0.90;;;18.20;35.90;;;;;;4906572;29;20135;-80
2021/04/18 07:22:07;;;;;;;1.73;1.08;;;18.20;36.00;;;;;;4906719;29;20190;-79
2021/04/18 07:24:49;;;;;;;1.17;1.08;;;18.20;35.90;;;;;;4890704;29;20176;-79
2021/04/18 07:27:15;;;;;;;1.35;1.10;;;18.30;35.90;;;;;;4905906;29;20152;-79
2021/04/18 07:29:54;;;;;;;2.45;1.15;;;18.30;35.80;;;;;;4891169;29;20191;-78
2021/04/18 07:32:23;;;;;;;2.70;1.10;;;18.30;35.90;;;;;;4923209;29;20190;-79
2021/04/18 07:34:59;;;;;;;2.30;1.13;;;18.30;35.90;;;;;;4890778;29;20176;-79
2021/04/18 07:37:34;;;;;;;1.33;1.17;;;18.30;35.80;;;;;;4906752;29;20151;-78
2021/04/18 07:40:03;;;;;;;2.95;1.20;;;18.30;35.70;;;;;;4890788;29;20175;-79
2021/04/18 07:42:47;;;;;;;1.73;1.10;;;18.40;35.70;;;;;;4906361;29;20183;-78
2021/04/18 07:45:22;;;;;;;2.35;1.05;;;18.30;35.80;;;;;;4923080;29;20187;-78
2021/04/18 07:47:57;;;;;;;1.63;1.00;;;18.40;35.70;;;;;;4891108;29;20163;-79
2021/04/18 07:50:25;;;;;;;2.28;1.00;;;18.40;35.80;;;;;;4906089;29;20167;-79
2021/04/18 07:52:53;;;;;;;1.65;1.00;;;18.30;35.70;;;;;;4906121;29;20171;-79
2021/04/18 07:55:29;;;;;;;1.60;1.10;;;18.30;35.80;;;;;;4906563;29;20160;-79
2021/04/18 07:57:58;;;;;;;1.20;1.08;;;18.30;35.90;;;;;;4922333;29;20234;-78
2021/04/18 08:00:26;;;;;;;1.58;1.10;;;18.40;35.70;;;;;;4906480;29;20144;-78
2021/04/18 08:02:54;;;;;;;1.00;0.90;;;18.40;35.70;;;;;;4906367;29;20216;-78
2021/04/18 08:05:23;;;;;;;1.17;0.95;;;18.40;35.70;;;;;;4905728;29;20175;-79
2021/04/18 08:08:09;;;;;;;1.88;1.10;;;18.40;35.70;;;;;;5012960;23;20229;-79
2021/04/18 08:10:38;;;;;;;3.42;1.08;;;18.30;35.80;;;;;;4979283;28;20169;-79
2021/04/18 08:13:08;;;;;;;1.63;1.10;;;18.40;35.70;;;;;;4979148;29;20185;-79
2021/04/18 08:15:54;;;;;;;0.80;0.80;;;18.40;35.70;;;;;;4979931;28;20165;-79
2021/04/18 08:18:42;;;;;;;1.65;1.00;;;18.40;35.70;;;;;;4979866;28;20150;-78
2021/04/18 08:21:45;;;;;;;1.27;1.10;;;18.40;35.80;;;;;;4978159;29;20166;-79
2021/04/18 08:24:21;;;;;;;1.65;1.15;;;18.40;35.80;;;;;;4979452;28;20184;-79
2021/04/18 08:27:07;;;;;;;1.92;1.15;;;18.30;35.80;;;;;;4980185;28;20157;-80
2021/04/18 08:29:57;;;;;;;1.52;0.95;;;18.40;35.60;;;;;;4979540;28;20180;-79
2021/04/18 08:32:47;;;;;;;1.25;0.93;;;18.40;35.60;;;;;;4980060;28;20213;-79
2021/04/18 08:35:34;;;;;;;1.02;0.90;;;18.50;35.50;;;;;;4979668;29;20165;-78
2021/04/18 08:38:22;;;;;;;1.00;0.80;;;18.60;35.40;;;;;;4961160;29;20188;-78
2021/04/18 08:41:05;;;;;;;2.15;1.23;;;18.60;35.30;;;;;;4963695;29;20150;-78
2021/04/18 08:43:32;;;;;;;1.77;0.80;;;18.50;35.50;;;;;;4979073;29;20192;-79
2021/04/18 08:46:00;;;;;;;1.50;1.05;;;18.40;35.70;;;;;;4979489;28;20185;-80
2021/04/18 08:48:27;;;;;;;1.48;0.98;;;18.40;35.70;;;;;;4979202;29;20178;-80
2021/04/18 08:51:04;;;;;;;1.80;0.90;;;18.40;35.70;;;;;;4980209;28;20221;-79
2021/04/18 08:53:56;;;;;;;1.50;0.98;;;18.40;35.70;;;;;;4977928;29;20196;-81
2021/04/18 08:56:43;;;;;;;1.40;1.10;;;18.30;35.90;;;;;;4978663;28;20154;-79
2021/04/18 08:59:30;;;;;;;1.10;1.00;;;18.30;36.00;;;;;;4975911;29;20172;-80
2021/04/18 09:02:26;;;;;;;1.52;1.20;;;18.20;36.00;;;;;;4972232;29;20219;-80
2021/04/18 09:05:00;;;;;;;2.05;1.20;;;18.30;36.10;;;;;;5020721;23;20228;-81
2021/04/18 09:07:30;;;;;;;3.65;1.20;;;18.30;36.00;;;;;;4957750;29;20172;-80
2021/04/18 09:10:12;;;;;;;2.20;1.30;;;18.40;35.80;;;;;;4954459;29;20149;-81
2021/04/18 09:12:46;;;;;;;1.13;0.90;;;18.50;35.70;;;;;;4977634;28;20229;-79
2021/04/18 09:15:15;;;;;;;1.23;1.00;;;18.40;35.70;;;;;;4962132;29;20169;-79
2021/04/18 09:17:45;;;;;;;1.98;1.25;;;18.30;35.80;;;;;;4961615;29;20193;-79
2021/04/18 09:20:20;;;;;;;1.88;1.10;;;18.30;35.90;;;;;;4942161;29;20209;-79
2021/04/18 09:22:46;;;;;;;1.30;1.20;;;18.30;35.90;;;;;;5064988;23;20243;-80
2021/04/18 09:25:22;;;;;;;1.40;1.05;;;18.40;36.40;;;;;;4946243;29;20189;-79
2021/04/18 09:27:51;;;;;;;1.70;1.20;;;18.30;35.80;;;;;;4941988;29;20233;-80
2021/04/18 09:30:30;;;;;;;1.95;1.10;;;18.50;35.80;;;;;;4942792;29;20182;-80
2021/04/18 09:32:59;;;;;;;1.73;0.98;;;18.40;35.70;;;;;;5111080;23;20314;-78
2021/04/18 09:35:29;;;;;;;2.05;1.02;;;18.40;35.80;;;;;;4958912;29;20165;-79
2021/04/18 09:40:52;;;;;;;1.80;1.15;;;18.50;35.60;;;;;;5032072;23;20231;-82
2021/04/18 09:43:27;;;;;;;2.15;0.88;;;18.50;35.60;;;;;;5003128;28;20195;-80
2021/04/18 09:46:02;;;;;;;1.10;1.00;;;18.50;35.60;;;;;;5059134;23;20236;-81
2021/04/18 09:59:16;;;;;;;2.03;1.40;;;18.40;35.90;;;;;;5759273;23;20210;-75
2021/04/18 10:16:19;;;;;;;1.40;0.90;;;18.50;35.80;;;;;;5704338;23;20986;31
2021/04/18 10:19:06;;;;;;;1.90;1.20;;;18.50;36.00;;;;;;4921722;29;20281;-81
2021/04/18 10:21:33;;;;;;;1.60;1.00;;;18.50;35.90;;;;;;4936876;29;20197;-80
2021/04/18 10:24:24;;;;;;;4.10;1.48;;;18.50;35.90;;;;;;4939317;29;20195;-79
2021/04/18 10:27:07;;;;;;;2.42;1.23;;;18.40;35.90;;;;;;4938371;29;20198;-82
2021/04/18 10:29:46;;;;;;;2.15;1.10;;;18.40;35.90;;;;;;4919381;29;20182;-81
2021/04/18 10:32:17;;;;;;;1.45;1.00;;;18.40;36.00;;;;;;5030801;23;20232;-77
2021/04/18 10:34:54;;;;;;;2.67;1.10;;;18.40;36.00;;;;;;4948284;28;20196;-81
2021/04/18 10:37:34;;;;;;;1.70;1.10;;;18.50;35.90;;;;;;4981447;28;20156;-81
2021/04/18 10:40:11;;;;;;;3.67;1.27;;;18.50;35.90;;;;;;4982615;28;20285;-77
2021/04/18 10:45:17;;;;;;;2.45;1.23;;;18.50;35.90;;;;;;5017928;28;20242;-78
2021/04/18 10:47:48;;;;;;;2.60;1.50;;;18.50;35.90;;;;;;5000503;28;20192;-80
2021/04/18 10:50:18;;;;;;;2.90;1.40;;;18.50;35.90;;;;;;4927628;29;20166;-78
2021/04/18 10:53:26;;;;;;;;;;;;;;;;;;;;;
2021/04/18 10:58:29;;;;;;;1.73;1.30;;;18.50;35.80;;;;;;5457653;23;20234;-79
2021/04/18 11:01:04;;;;;;;1.40;0.90;;;18.50;35.90;;;;;;5001718;28;20176;-80
2021/04/18 11:03:43;;;;;;;2.58;1.20;;;18.50;35.80;;;;;;4971078;28;20186;-78
2021/04/18 11:06:16;;;;;;;1.65;1.13;;;18.50;35.70;;;;;;4970770;28;20184;-78
2021/04/18 11:08:45;;;;;;;1.92;1.02;;;18.60;35.70;;;;;;4970714;28;20176;-79
2021/04/18 11:11:13;;;;;;;2.88;1.20;;;18.50;35.70;;;;;;4986134;28;20224;-78
2021/04/18 11:13:41;;;;;;;3.03;1.10;;;18.50;35.80;;;;;;4961685;28;20243;-80
2021/04/18 11:16:08;;;;;;;1.95;1.20;;;18.50;35.80;;;;;;4986808;28;20192;-81
2021/04/18 11:18:44;;;;;;;1.13;1.02;;;18.50;35.80;;;;;;4987773;28;20157;-81
2021/04/18 11:21:12;;;;;;;2.42;1.10;;;18.60;35.80;;;;;;4987084;28;20186;-79
2021/04/18 11:24:01;;;;;;;3.13;1.02;;;18.60;35.80;;;;;;4970255;28;20196;-79
2021/04/18 11:26:33;;;;;;;0.90;0.80;;;18.50;35.80;;;;;;4986103;28;20172;-80
2021/04/18 11:29:08;;;;;;;1.73;1.10;;;18.60;36.00;;;;;;4985540;28;20152;-81
2021/04/18 11:31:40;;;;;;;2.75;1.40;;;18.60;35.80;;;;;;4985840;28;20259;-80
2021/04/18 11:34:07;;;;;;;3.13;1.20;;;18.60;35.60;;;;;;4986740;28;20232;-79
2021/04/18 11:36:44;;;;;;;1.48;1.20;;;18.60;35.70;;;;;;4944071;29;20257;-78
2021/04/18 11:39:19;;;;;;;1.88;1.25;;;18.70;35.80;;;;;;4943855;29;20181;-79
2021/04/18 11:41:54;;;;;;;5.85;1.20;;;18.60;35.80;;;;;;4943752;29;20170;-80
2021/04/18 11:44:28;;;;;;;1.45;1.00;;;18.60;35.80;;;;;;4904764;29;20195;-81
2021/04/18 11:46:55;;;;;;;1.67;1.17;;;18.60;35.90;;;;;;4905362;29;20187;-80
2021/04/18 11:49:23;;;;;;;2.15;0.90;;;18.60;35.90;;;;;;4905823;29;20156;-83
2021/04/18 11:51:50;;;;;;;2.80;1.30;;;18.50;36.00;;;;;;4917736;29;20183;-79
2021/04/18 11:54:16;;;;;;;4.18;1.35;;;18.60;36.10;;;;;;4902373;29;20191;-81
2021/04/18 11:56:43;;;;;;;3.28;1.40;;;18.70;35.80;;;;;;4917116;29;20213;-81
2021/04/18 11:59:11;;;;;;;2.25;1.13;;;18.70;35.70;;;;;;4897510;29;20215;-81
2021/04/18 12:01:38;;;;;;;3.65;1.20;;;18.80;35.60;;;;;;4916982;29;20188;-81
2021/04/18 12:04:04;;;;;;;2.65;1.42;;;18.70;35.70;;;;;;4914400;29;20234;-81
2021/04/18 12:06:32;;;;;;;2.80;1.27;;;18.60;35.80;;;;;;4918240;29;20171;-81
2021/04/18 12:09:00;;;;;;;1.80;1.20;;;18.70;35.80;;;;;;4932603;29;20167;-81
2021/04/18 12:11:36;;;;;;;1.33;0.93;;;18.70;35.80;;;;;;4934459;29;20359;-80
2021/04/18 12:14:03;;;;;;;2.15;1.10;;;18.70;35.90;;;;;;4934588;29;20147;-80
2021/04/18 12:16:29;;;;;;;2.60;1.30;;;18.60;35.80;;;;;;4933738;29;20226;-79
2021/04/18 12:18:56;;;;;;;2.92;1.25;;;18.60;35.80;;;;;;4932937;29;20183;-80
2021/04/18 12:21:22;;;;;;;1.60;1.27;;;18.60;35.80;;;;;;4933424;29;20179;-80
2021/04/18 12:23:56;;;;;;;1.42;1.10;;;18.60;35.80;;;;;;4933310;29;20221;-80
2021/04/18 12:26:24;;;;;;;2.95;1.20;;;18.70;35.80;;;;;;4919586;29;20290;-79
2021/04/18 12:28:52;;;;;;;2.30;1.30;;;18.70;35.90;;;;;;4918308;29;20174;-80
2021/04/18 12:31:20;;;;;;;1.48;1.30;;;18.70;35.90;;;;;;4933538;29;20190;-80
2021/04/18 12:33:50;;;;;;;1.83;1.30;;;18.60;36.00;;;;;;4918448;29;20163;-81
2021/04/18 12:36:24;;;;;;;1.73;1.20;;;18.60;36.20;;;;;;4934495;29;20175;-81
2021/04/18 12:38:59;;;;;;;3.17;1.45;;;18.60;36.20;;;;;;4934700;29;20194;-80
2021/04/18 12:41:28;;;;;;;2.45;1.27;;;18.60;36.10;;;;;;4947605;28;20204;-79
2021/04/18 12:43:56;;;;;;;3.55;1.38;;;18.60;36.20;;;;;;4995266;28;20216;-80
2021/04/18 12:46:31;;;;;;;2.20;1.00;;;18.60;36.20;;;;;;4964407;28;20160;-79
2021/04/18 12:49:04;;;;;;;2.78;1.35;;;18.60;36.10;;;;;;4964020;28;20186;-78
2021/04/18 12:51:31;;;;;;;2.10;1.25;;;18.70;36.10;;;;;;4995389;28;20200;-80
2021/04/18 12:54:02;;;;;;;2.53;1.55;;;18.70;35.90;;;;;;4945265;28;20167;-81
2021/04/18 12:56:31;;;;;;;2.53;1.40;;;18.70;35.70;;;;;;5045663;23;20235;-80
2021/04/18 12:59:06;;;;;;;10.30;1.73;;;18.70;35.70;;;;;;4925369;29;20177;-80
2021/04/18 13:01:33;;;;;;;6.70;1.65;;;18.90;35.70;;;;;;4958459;29;20168;-79
2021/04/18 13:04:04;;;;;;;2.42;1.30;;;18.80;35.50;;;;;;4975831;29;20197;-77
2021/04/18 13:06:32;;;;;;;3.90;1.27;;;18.80;35.70;;;;;;4941756;29;20195;-78
2021/04/18 13:09:00;;;;;;;4.22;1.20;;;18.70;35.80;;;;;;4975539;29;20158;-79
2021/04/18 13:11:26;;;;;;;5.15;1.40;;;18.80;35.80;;;;;;4959397;29;20217;-79
2021/04/18 13:13:53;;;;;;;2.58;1.40;;;18.80;35.70;;;;;;4976442;29;20181;-80
2021/04/18 13:16:30;;;;;;;1.90;1.30;;;18.80;35.60;;;;;;4960837;29;20176;-78
2021/04/18 13:19:00;;;;;;;2.53;1.33;;;18.80;35.60;;;;;;4961666;29;20157;-78
2021/04/18 13:21:28;;;;;;;1.67;1.23;;;18.80;35.60;;;;;;4945500;29;20225;-79
2021/04/18 13:23:55;;;;;;;1.88;1.30;;;18.80;35.70;;;;;;4960701;29;20193;-80
2021/04/18 13:26:23;;;;;;;2.22;1.63;;;18.80;35.60;;;;;;4975852;29;20172;-79
2021/04/18 13:28:57;;;;;;;2.72;1.40;;;18.90;36.40;;;;;;4957191;28;20164;-79
2021/04/18 13:31:26;;;;;;;1.75;1.25;;;18.90;35.70;;;;;;4955785;29;20241;-81
2021/04/18 13:33:59;;;;;;;4.03;1.30;;;18.80;35.80;;;;;;4942065;29;20201;-82
2021/04/18 13:36:31;;;;;;;1.90;1.38;;;18.80;35.70;;;;;;4941597;29;20160;-83
2021/04/18 13:39:01;;;;;;;4.28;1.40;;;18.70;35.80;;;;;;4923972;29;20266;-82
2021/04/18 13:41:28;;;;;;;1.48;1.27;;;18.70;36.20;;;;;;4938426;29;20169;-82
2021/04/18 13:44:05;;;;;;;3.17;1.23;;;18.70;36.00;;;;;;4956958;29;20224;-82
2021/04/18 13:46:43;;;;;;;3.22;1.35;;;18.80;35.90;;;;;;4958018;29;20188;-82
2021/04/18 13:49:18;;;;;;;4.63;1.45;;;18.70;36.10;;;;;;4913818;29;20186;-82
2021/04/18 13:51:45;;;;;;;3.72;1.30;;;18.80;35.90;;;;;;4916344;29;20193;-82
2021/04/18 13:54:20;;;;;;;3.42;1.60;;;18.90;36.00;;;;;;4916360;29;20211;-81
2021/04/18 13:56:46;;;;;;;2.55;1.38;;;19.00;36.00;;;;;;4931058;29;20238;-81
2021/04/18 13:59:21;;;;;;;3.20;1.40;;;19.00;35.90;;;;;;4902105;29;20213;-80
2021/04/18 14:01:48;;;;;;;3.92;1.38;;;18.90;36.00;;;;;;4917176;29;20166;-80
2021/04/18 14:04:16;;;;;;;2.50;1.20;;;18.90;36.10;;;;;;4913937;29;20183;-80
2021/04/18 14:06:50;;;;;;;3.08;1.40;;;18.90;36.30;;;;;;4914095;29;20163;-83
2021/04/18 14:09:25;;;;;;;8.18;1.30;;;18.90;36.10;;;;;;4903204;29;20186;-82
2021/04/18 14:11:52;;;;;;;3.83;1.92;;;18.90;36.10;;;;;;4917869;29;20630;-82
2021/04/18 14:14:21;;;;;;;5.60;1.48;;;18.90;36.00;;;;;;4918924;29;20194;-82
2021/04/18 14:16:56;;;;;;;6.72;1.48;;;18.90;36.00;;;;;;4874841;29;20190;-80
2021/04/18 14:19:33;;;;;;;3.20;1.48;;;18.80;36.00;;;;;;4928131;29;20187;-81
2021/04/18 14:21:59;;;;;;;5.43;1.48;;;18.90;36.20;;;;;;4940264;29;20173;-81
2021/04/18 14:24:32;;;;;;;5.00;1.80;;;18.90;36.40;;;;;;4941744;29;20165;-81
2021/04/18 14:27:08;;;;;;;7.60;1.58;;;18.90;36.20;;;;;;4957968;29;20185;-82
2021/04/18 14:29:42;;;;;;;5.50;1.58;;;18.90;36.10;;;;;;4940106;29;20177;-82
2021/04/18 14:32:09;;;;;;;6.35;1.50;;;19.00;36.10;;;;;;4958891;29;20160;-81
2021/04/18 14:34:37;;;;;;;3.75;1.73;;;19.00;36.00;;;;;;4957497;29;20149;-81
2021/04/18 14:37:12;;;;;;;5.07;1.67;;;19.00;36.00;;;;;;4956700;29;20161;-81
2021/04/18 14:39:39;;;;;;;4.05;1.75;;;19.10;36.00;;;;;;4943080;29;20196;-80
2021/04/18 14:42:15;;;;;;;2.50;1.40;;;19.00;36.10;;;;;;4942332;29;20200;-81
2021/04/18 14:44:42;;;;;;;4.25;1.63;;;19.00;36.80;;;;;;4957452;29;20157;-82
2021/04/18 14:47:08;;;;;;;5.18;1.52;;;19.00;36.20;;;;;;4956504;29;20162;-81
2021/04/18 14:49:47;;;;;;;3.85;1.52;;;19.00;35.90;;;;;;4956817;29;20294;-82
2021/04/18 14:52:14;;;;;;;2.80;1.50;;;19.00;35.90;;;;;;4956507;29;20217;-81
2021/04/18 14:54:41;;;;;;;3.50;1.50;;;19.00;36.20;;;;;;4954354;29;20153;-81
2021/04/18 14:57:07;;;;;;;2.35;1.20;;;19.00;36.30;;;;;;4954627;29;20224;-79
2021/04/18 14:59:59;;;;;;;6.82;1.63;;;18.90;36.30;;;;;;4941204;29;20166;-81
2021/04/18 15:02:26;;;;;;;7.75;1.75;;;19.00;36.40;;;;;;4954184;29;20253;-82
2021/04/18 15:04:56;;;;;;;5.88;1.48;;;19.10;36.30;;;;;;4952423;29;20173;-81
2021/04/18 15:07:30;;;;;;;9.23;2.03;;;19.10;36.40;;;;;;4938919;29;20176;-82
2021/04/18 15:10:05;;;;;;;6.15;1.60;;;19.20;36.30;;;;;;4939047;29;20141;-81
2021/04/18 15:12:38;;;;;;;9.35;1.95;;;19.10;36.50;;;;;;4943410;29;20169;-82
2021/04/18 15:15:13;;;;;;;4.45;1.75;;;19.10;36.40;;;;;;4948150;29;20181;-82
2021/04/18 15:17:42;;;;;;;10.15;2.65;;;19.10;36.60;;;;;;5220279;23;20224;-81
2021/04/18 15:20:13;;;;;;;4.82;1.80;;;19.10;36.70;;;;;;4947081;28;20180;-80
2021/04/18 15:22:50;;;;;;;10.10;2.00;;;19.10;36.90;;;;;;4963845;28;20278;-81
2021/04/18 15:25:18;;;;;;;11.27;2.33;;;19.10;36.90;;;;;;4949502;28;20179;-80
2021/04/18 15:27:49;;;;;;;16.42;2.33;;;19.10;37.20;;;;;;4997551;28;20141;-81
2021/04/18 15:35:54;;;;;;;9.40;1.92;;;19.10;37.00;;;;;;4993418;28;20216;-80
2021/04/18 15:38:28;;;;;;;9.73;2.20;;;19.10;36.90;;;;;;4965128;28;20250;-80
2021/04/18 15:40:56;;;;;;;12.82;2.33;;;19.20;37.20;;;;;;4981450;28;20175;-79
2021/04/18 15:43:31;;;;;;;6.20;2.00;;;19.10;37.50;;;;;;4964616;28;20228;-80
2021/04/18 15:46:04;;;;;;;13.35;2.10;;;19.10;37.50;;;;;;4963495;28;20500;-81
2021/04/18 15:48:31;;;;;;;8.77;2.17;;;19.10;37.50;;;;;;4963195;28;20165;-81
2021/04/18 15:51:04;;;;;;;14.13;2.33;;;19.10;37.60;;;;;;4958215;29;20189;-81
2021/04/18 15:53:34;;;;;;;12.70;2.10;;;19.10;37.80;;;;;;4941223;29;20190;-79
2021/04/18 15:56:15;;;;;;;13.73;2.00;;;19.10;37.80;;;;;;4941551;29;20190;-79
2021/04/18 15:58:51;;;;;;;13.82;2.10;;;19.20;37.70;;;;;;4942387;29;20169;-82
2021/04/18 16:01:22;;;;;;;17.70;2.75;;;19.20;37.80;;;;;;4956223;29;20185;-79
2021/04/18 16:03:50;;;;;;;20.17;2.58;;;19.30;38.00;;;;;;4940140;29;20209;-80
2021/04/18 16:06:27;;;;;;;19.20;2.90;;;19.20;38.50;;;;;;4940427;29;20260;-77
2021/04/18 16:08:54;;;;;;;19.05;2.72;;;19.20;38.30;;;;;;4957840;29;20176;-80
2021/04/18 16:11:29;;;;;;;26.73;2.40;;;19.30;38.20;;;;;;4944084;29;20273;-80
2021/04/18 16:13:55;;;;;;;27.67;3.00;;;19.20;38.30;;;;;;5396088;23;20890;-79
2021/04/18 16:16:24;;;;;;;18.23;2.50;;;19.10;38.50;;;;;;4969973;28;20263;-80
2021/04/18 16:18:59;;;;;;;23.08;2.97;;;19.10;38.50;;;;;;4942986;29;20257;-80
2021/04/18 16:21:34;;;;;;;20.02;2.75;;;19.10;38.30;;;;;;4941945;29;20229;-80
2021/04/18 16:24:00;;;;;;;17.05;2.72;;;19.10;38.40;;;;;;4941316;29;20213;-79
2021/04/18 16:26:27;;;;;;;19.85;2.60;;;19.10;38.30;;;;;;4954548;29;20561;-79
2021/04/18 16:28:54;;;;;;;19.48;2.60;;;19.20;38.00;;;;;;4954096;29;20197;-79
2021/04/18 16:31:21;;;;;;;20.95;2.63;;;19.10;38.20;;;;;;4936494;29;20166;-80
2021/04/18 16:33:48;;;;;;;14.75;2.47;;;19.10;38.30;;;;;;4953931;29;20253;-79
2021/04/18 16:36:15;;;;;;;17.70;2.55;;;19.10;38.50;;;;;;4953318;29;20165;-79
2021/04/18 16:38:42;;;;;;;11.63;2.33;;;19.10;38.20;;;;;;4955058;29;20168;-80
2021/04/18 16:41:09;;;;;;;15.60;2.67;;;19.10;38.10;;;;;;4953314;29;20177;-80
2021/04/18 16:43:43;;;;;;;15.73;2.47;;;19.20;38.20;;;;;;4953965;29;20218;-78
2021/04/18 16:46:10;;;;;;;16.08;3.15;;;19.10;38.60;;;;;;4955068;29;20149;-79
2021/04/18 16:48:40;;;;;;;9.43;2.10;;;19.10;38.70;;;;;;4940666;28;20265;-78
2021/04/18 16:51:07;;;;;;;9.40;2.42;;;19.10;38.50;;;;;;5080452;23;20243;-79
2021/04/18 16:53:34;;;;;;;18.50;2.70;;;19.10;38.70;;;;;;4994303;28;20143;-79
2021/04/18 16:56:01;;;;;;;17.90;2.55;;;19.10;38.40;;;;;;5014823;28;20160;-79
2021/04/18 16:58:27;;;;;;;10.75;2.15;;;19.10;38.60;;;;;;5015232;28;20140;-79
2021/04/18 17:00:54;;;;;;;16.65;2.47;;;19.10;39.00;;;;;;5013889;28;20216;-80
2021/04/18 17:03:21;;;;;;;12.13;2.28;;;19.10;38.80;;;;;;5011570;28;20202;-79
2021/04/18 17:05:56;;;;;;;14.50;2.50;;;19.10;39.00;;;;;;4994086;28;20152;-80
2021/04/18 17:08:32;;;;;;;10.02;2.20;;;19.10;38.70;;;;;;4993947;28;20156;-80
2021/04/18 17:10:59;;;;;;;9.43;2.25;;;19.10;38.70;;;;;;5010224;28;20148;-80
2021/04/18 17:13:25;;;;;;;10.65;2.40;;;19.10;39.10;;;;;;4993372;28;20160;-79
2021/04/18 17:15:52;;;;;;;17.63;2.80;;;19.10;38.80;;;;;;5009170;28;20164;-79
2021/04/18 17:18:19;;;;;;;9.13;2.47;;;19.10;38.60;;;;;;4993195;28;20156;-80
2021/04/18 17:20:45;;;;;;;9.27;2.13;;;19.10;38.70;;;;;;5009102;28;20211;-79
2021/04/18 17:23:20;;;;;;;8.38;2.10;;;19.00;38.70;;;;;;5009498;28;20195;-80
2021/04/18 17:25:47;;;;;;;11.25;2.40;;;19.00;38.60;;;;;;4992679;28;20166;-80
2021/04/18 17:28:13;;;;;;;14.10;2.35;;;19.10;38.70;;;;;;4991252;28;20153;-80
2021/04/18 17:30:40;;;;;;;9.70;2.25;;;19.00;38.70;;;;;;4992529;28;20160;-80
2021/04/18 17:33:07;;;;;;;10.15;2.33;;;19.00;38.80;;;;;;4994135;28;20632;-80
2021/04/18 17:35:36;;;;;;;6.65;2.38;;;19.00;39.00;;;;;;5010089;28;20168;-79
2021/04/18 17:38:03;;;;;;;10.65;2.33;;;19.00;39.00;;;;;;5009460;28;20149;-80
2021/04/18 17:40:31;;;;;;;11.05;2.20;;;19.00;39.60;;;;;;4992196;28;20155;-79
2021/04/18 17:42:57;;;;;;;13.52;2.63;;;19.00;39.00;;;;;;5010979;28;20200;-79
2021/04/18 17:45:32;;;;;;;12.15;2.22;;;18.90;39.00;;;;;;5009802;28;20263;-78
2021/04/18 17:48:07;;;;;;;10.05;1.90;;;19.00;39.00;;;;;;4982472;28;20714;-78
2021/04/18 17:50:34;;;;;;;8.95;2.22;;;19.00;38.90;;;;;;5017208;28;20578;-79
2021/04/18 17:53:04;;;;;;;11.43;2.00;;;18.90;38.90;;;;;;5017134;28;20188;-79
2021/04/18 17:55:31;;;;;;;9.98;2.08;;;19.00;39.00;;;;;;4999210;28;20168;-78
2021/04/18 17:57:57;;;;;;;10.30;2.25;;;19.00;39.00;;;;;;5015371;28;20171;-80
2021/04/18 18:00:25;;;;;;;9.10;2.30;;;18.90;39.30;;;;;;4998435;28;20161;-80